Terminal Aerodrome Forecast
Issued by NWS Atlanta, GA

Home | Current Version | Previous Version | Text Only | Print | Product List | Glossary On
Versions: 1 2 3 4 5 6 7 8 9 10 11 12 13 14 15 16 17 18 19 20 21 22 23 24 25 26 27 28 29 30 31 32 33 34 35 36 37 38
724
FTUS42 KFFC 030534
TAFATL
TAF
KATL 030534Z 0306/0412 31003KT P6SM BKN250
     FM031200 33006KT P6SM BKN150
     FM031600 01006KT P6SM BKN120
     FM040100 05005KT P6SM VCSH OVC060
     FM040800 08007KT 6SM -RADZ OVC040=

USA.gov is the U.S. government's official web portal to all federal, state and local government web resources and services.